Time;durP1;ratioP1;P1;durP2;ratioP2;P2;SDS_P1;SDS_P2;PMS_P1;PMS_P2;Temp;Humidity;BMP_temperature;BMP_pressure;BME280_temperature;BME280_humidity;BME280_pressure;Samples;Min_cycle;Max_cycle;Signal;HPM_P1;HPM_P2
2024/04/12 00:01:12;;;;;;;3.33;1.33;;;;;;;19.50;51.25;103115.06;5399587;26;20046;-70
2024/04/12 00:03:38;;;;;;;3.17;1.52;;;;;;;19.45;51.35;103123.22;5398783;26;20542;-69
2024/04/12 00:06:15;;;;;;;3.05;1.60;;;;;;;19.48;51.05;103114.28;5399084;26;20043;-72
2024/04/12 00:08:47;;;;;;;2.90;1.52;;;;;;;19.57;51.06;103132.34;5399047;26;20023;-69
2024/04/12 00:11:18;;;;;;;4.00;1.50;;;;;;;19.51;51.25;103111.50;5399926;26;20360;-69
2024/04/12 00:13:45;;;;;;;3.75;1.50;;;;;;;19.51;51.36;103111.50;5399428;26;20003;-69
2024/04/12 00:16:10;;;;;;;3.08;1.52;;;;;;;19.56;51.35;103120.03;5399637;26;20289;-68
2024/04/12 00:18:39;;;;;;;2.42;1.23;;;;;;;19.48;51.33;103101.06;5400261;26;20333;-70
2024/04/12 00:21:05;;;;;;;3.38;1.20;;;;;;;19.57;51.19;103119.97;5398713;26;20028;-68
2024/04/12 00:23:34;;;;;;;2.88;1.50;;;;;;;19.50;51.00;103104.47;5400071;26;19996;-69
2024/04/12 00:26:01;;;;;;;2.75;1.30;;;;;;;19.39;50.87;103087.41;5399484;26;19996;-71
2024/04/12 00:28:30;;;;;;;2.80;1.40;;;;;;;19.55;50.93;103116.56;5399159;26;19999;-70
2024/04/12 00:31:02;;;;;;;2.38;1.20;;;;;;;19.54;51.29;103106.91;5399427;26;20401;-69
2024/04/12 00:33:32;;;;;;;3.20;1.40;;;;;;;19.52;50.97;103097.34;5399967;26;20069;-70
2024/04/12 00:36:07;;;;;;;3.13;1.45;;;;;;;19.57;51.34;103121.75;5398989;26;21361;-71
2024/04/12 00:38:36;;;;;;;3.05;1.40;;;;;;;19.45;51.01;103096.78;5399634;26;20597;-69
2024/04/12 00:41:14;;;;;;;2.55;1.25;;;;;;;19.55;50.93;103108.63;5399385;26;19987;-68
2024/04/12 00:43:45;;;;;;;3.92;1.30;;;;;;;19.53;51.28;103091.94;5398787;26;20327;-69
2024/04/12 00:46:14;;;;;;;3.70;1.40;;;;;;;19.55;51.05;103097.16;5399354;26;20003;-69
2024/04/12 00:48:42;;;;;;;2.58;1.35;;;;;;;19.45;51.20;103082.72;5399016;26;19999;-69
2024/04/12 00:51:09;;;;;;;2.72;1.33;;;;;;;19.48;50.97;103087.84;5396933;26;19999;-70
2024/04/12 00:53:38;;;;;;;2.60;1.40;;;;;;;19.43;50.95;103074.00;5399588;26;20002;-69
2024/04/12 00:56:06;;;;;;;2.75;1.23;;;;;;;19.51;51.44;103082.41;5398310;26;19991;-69
2024/04/12 00:58:34;;;;;;;2.35;1.15;;;;;;;19.49;51.10;103076.34;5398823;26;20002;-70
2024/04/12 01:01:11;;;;;;;2.67;1.30;;;;;;;19.49;51.19;103074.56;5398460;26;19988;-69
2024/04/12 01:03:45;;;;;;;2.63;1.27;;;;;;;19.39;51.08;103070.66;5395618;26;20000;-69
2024/04/12 01:06:15;;;;;;;2.25;1.20;;;;;;;19.44;51.13;103081.00;5399279;26;20003;-71
2024/04/12 01:08:43;;;;;;;2.83;1.50;;;;;;;19.38;51.13;103061.03;5397676;26;20339;-69
2024/04/12 01:11:09;;;;;;;2.40;1.20;;;;;;;19.36;51.30;103050.53;5398285;26;20039;-69
2024/04/12 01:13:36;;;;;;;2.85;1.23;;;;;;;19.39;51.16;103062.72;5397927;26;20011;-71
2024/04/12 01:16:02;;;;;;;2.53;1.48;;;;;;;19.38;51.31;103047.81;5398325;26;20747;-69
2024/04/12 01:18:28;;;;;;;1.80;1.10;;;;;;;19.40;51.14;103052.06;5397765;26;20007;-68
2024/04/12 01:20:54;;;;;;;2.58;1.35;;;;;;;19.46;51.33;103063.28;5398605;26;20007;-71
2024/04/12 01:23:19;;;;;;;2.50;1.20;;;;;;;19.42;51.17;103048.50;5399093;26;20006;-70
2024/04/12 01:25:47;;;;;;;2.42;1.27;;;;;;;19.44;51.40;103043.97;5396450;26;20007;-68
2024/04/12 01:28:15;;;;;;;2.40;1.20;;;;;;;19.45;51.13;103048.34;5397440;26;20002;-69
2024/04/12 01:30:41;;;;;;;1.95;1.02;;;;;;;19.26;51.25;103004.34;5397069;26;20002;-70
2024/04/12 01:33:08;;;;;;;2.25;1.00;;;;;;;19.44;51.22;103031.63;5398896;26;19996;-68
2024/04/12 01:35:33;;;;;;;2.60;1.10;;;;;;;19.45;51.65;103030.69;5396273;26;20002;-68
2024/04/12 01:38:15;;;;;;;2.00;1.02;;;;;;;19.44;51.45;103038.69;5396807;26;20000;-68
2024/04/12 01:40:41;;;;;;;2.20;1.08;;;;;;;19.41;51.43;103029.16;5397998;26;20065;-70
2024/04/12 01:43:08;;;;;;;2.72;1.20;;;;;;;19.45;51.19;103024.53;5397595;26;20004;-68
2024/04/12 01:45:33;;;;;;;2.45;1.00;;;;;;;19.44;51.21;103018.41;5397569;26;20000;-69
2024/04/12 01:47:59;;;;;;;2.10;1.00;;;;;;;19.39;51.38;103012.47;5398304;26;20081;-68
2024/04/12 01:50:26;;;;;;;2.33;1.00;;;;;;;19.30;51.17;103002.41;5397268;26;19991;-69
2024/04/12 01:52:55;;;;;;;1.80;1.00;;;;;;;19.41;51.07;103018.56;5397514;26;20007;-70
2024/04/12 01:55:22;;;;;;;1.92;1.00;;;;;;;19.34;51.22;103019.81;5396510;26;20042;-69
2024/04/12 01:57:52;;;;;;;1.92;0.90;;;;;;;19.43;51.02;103039.63;5398068;26;19996;-71
2024/04/12 02:00:23;;;;;;;2.05;1.08;;;;;;;19.34;51.22;103015.41;5395268;26;19995;-71
2024/04/12 02:02:52;;;;;;;1.60;0.90;;;;;;;19.42;51.25;103030.84;5393672;26;20006;-71
2024/04/12 02:05:28;;;;;;;1.88;0.80;;;;;;;19.43;51.40;103035.19;5397125;26;19999;-69
2024/04/12 02:07:55;;;;;;;1.77;0.80;;;;;;;19.27;51.17;103018.44;5397715;26;20006;-68
2024/04/12 02:10:22;;;;;;;1.33;0.88;;;;;;;19.35;51.15;103024.16;5398492;26;19992;-68
2024/04/12 02:12:53;;;;;;;1.52;0.70;;;;;;;19.41;51.02;103045.00;5398361;26;20441;-68
2024/04/12 02:15:25;;;;;;;1.75;0.82;;;;;;;19.29;51.03;103022.69;5397480;26;19995;-68
2024/04/12 02:18:02;;;;;;;1.08;0.70;;;;;;;19.29;51.13;103027.97;5397784;26;19995;-69
2024/04/12 02:20:33;;;;;;;1.65;0.70;;;;;;;19.28;50.91;103025.41;5398223;26;19995;-72
2024/04/12 02:23:00;;;;;;;1.60;0.70;;;;;;;19.38;50.84;103040.72;5397157;26;20009;-70
2024/04/12 02:25:27;;;;;;;1.50;0.80;;;;;;;19.29;51.11;103027.97;5397634;26;20023;-69
2024/04/12 02:27:55;;;;;;;1.25;0.75;;;;;;;19.38;51.28;103043.38;5397050;26;20050;-68
2024/04/12 02:30:25;;;;;;;1.52;0.80;;;;;;;19.36;51.08;103039.13;5396527;26;19999;-72
2024/04/12 02:32:52;;;;;;;1.35;0.70;;;;;;;19.37;50.99;103043.44;5397496;26;20388;-70
2024/04/12 02:35:21;;;;;;;2.03;0.80;;;;;;;19.29;51.26;103025.34;5396662;26;19992;-72
2024/04/12 02:37:47;;;;;;;1.17;0.75;;;;;;;19.25;51.13;103015.00;5397502;26;20500;-71
2024/04/12 02:40:15;;;;;;;1.17;0.75;;;;;;;19.32;51.08;103029.63;5396450;26;19995;-69
2024/04/12 02:42:43;;;;;;;1.05;0.68;;;;;;;19.30;51.07;103028.84;5396879;26;20068;-69
2024/04/12 02:45:12;;;;;;;1.48;0.80;;;;;;;19.32;51.10;103032.25;5397584;26;19995;-72
2024/04/12 02:47:41;;;;;;;1.20;0.68;;;;;;;19.27;50.91;103026.38;5397831;26;20477;-71
2024/04/12 02:50:10;;;;;;;1.48;0.80;;;;;;;19.26;51.18;103028.13;5396932;26;20010;-71
2024/04/12 02:52:38;;;;;;;1.25;0.68;;;;;;;19.34;51.29;103041.84;5397009;26;19999;-71
2024/04/12 02:55:12;;;;;;;1.63;0.70;;;;;;;19.28;51.12;103031.56;5397695;26;20007;-70
2024/04/12 02:57:38;;;;;;;1.58;0.70;;;;;;;19.24;51.40;103016.78;5396585;26;20007;-70
2024/04/12 03:00:04;;;;;;;1.05;0.68;;;;;;;19.34;51.28;103033.03;5397040;26;20073;-69
2024/04/12 03:02:29;;;;;;;1.40;0.82;;;;;;;19.25;51.14;103009.72;5395576;26;20010;-71
2024/04/12 03:04:54;;;;;;;1.50;0.80;;;;;;;19.30;51.03;103015.63;5396299;26;19996;-69
2024/04/12 03:07:20;;;;;;;1.27;0.70;;;;;;;19.27;51.16;103021.91;5397319;26;21100;-72
2024/04/12 03:09:45;;;;;;;2.63;0.75;;;;;;;19.23;51.25;103020.34;5395119;26;20337;-71
2024/04/12 03:12:12;;;;;;;1.88;0.80;;;;;;;19.25;51.03;103017.63;5394729;26;19991;-71
2024/04/12 03:14:38;;;;;;;1.17;0.70;;;;;;;19.31;51.31;103028.78;5396936;26;19996;-70
2024/04/12 03:17:04;;;;;;;1.10;0.70;;;;;;;19.34;51.27;103028.63;5398885;26;20003;-70
2024/04/12 03:19:31;;;;;;;1.63;0.65;;;;;;;19.25;51.25;103015.00;5400351;26;20584;-72
2024/04/12 03:21:56;;;;;;;1.40;0.70;;;;;;;19.25;51.47;103012.34;5400612;26;19991;-69
2024/04/12 03:24:21;;;;;;;0.93;0.65;;;;;;;19.33;51.33;103026.06;5398295;26;20031;-71
2024/04/12 03:26:47;;;;;;;1.70;0.80;;;;;;;19.17;51.32;102995.13;5400478;26;20006;-69
2024/04/12 03:29:13;;;;;;;1.13;0.60;;;;;;;19.25;51.47;103004.41;5400993;26;20827;-70
2024/04/12 03:31:38;;;;;;;0.88;0.65;;;;;;;19.15;51.40;102977.63;5400040;26;19991;-72
2024/04/12 03:34:13;;;;;;;1.27;0.70;;;;;;;19.24;51.32;103000.09;5400322;26;19992;-69
2024/04/12 03:41:47;;;;;;;1.60;0.80;;;;;;;19.29;51.13;103014.75;5400242;26;19999;-70
2024/04/12 03:44:13;;;;;;;1.90;0.85;;;;;;;19.20;51.51;102997.59;5400447;26;20269;-69
2024/04/12 03:46:44;;;;;;;1.27;0.70;;;;;;;19.29;51.28;103011.28;5399579;26;20380;-72
2024/04/12 03:49:10;;;;;;;1.33;0.80;;;;;;;19.27;51.34;103008.72;5400944;26;20010;-69
2024/04/12 03:51:44;;;;;;;1.65;0.90;;;;;;;19.30;51.41;103007.69;5398683;26;20003;-69
2024/04/12 03:54:11;;;;;;;2.33;1.00;;;;;;;19.25;51.40;103007.94;5399423;26;19995;-70
2024/04/12 03:56:38;;;;;;;2.47;0.90;;;;;;;19.29;51.83;103005.97;5400383;26;20002;-69
2024/04/12 03:59:03;;;;;;;2.72;1.10;;;;;;;19.23;51.67;102991.28;5399282;26;19999;-71
2024/04/12 04:01:31;;;;;;;1.67;0.90;;;;;;;19.17;51.58;102987.19;5399991;26;20326;-69
2024/04/12 04:03:57;;;;;;;1.45;0.90;;;;;;;18.93;51.50;102943.53;5397755;26;19991;-69
2024/04/12 04:06:23;;;;;;;1.58;0.90;;;;;;;19.20;51.34;102997.59;5397123;26;19992;-71
2024/04/12 04:08:48;;;;;;;1.77;0.88;;;;;;;19.18;51.70;102999.47;5400124;26;20072;-71
2024/04/12 04:11:17;;;;;;;3.00;1.08;;;;;;;19.07;51.48;102975.38;5458801;26;20437;-70
2024/04/12 04:13:44;;;;;;;2.08;0.90;;;;;;;19.17;51.70;102989.84;5399298;26;19999;-70
2024/04/12 04:16:10;;;;;;;2.08;1.02;;;;;;;19.20;51.69;102987.03;5400502;26;20011;-70
2024/04/12 04:18:35;;;;;;;1.50;0.95;;;;;;;19.23;51.36;102985.16;5398376;26;20032;-69
2024/04/12 04:21:07;;;;;;;2.13;0.98;;;;;;;19.10;51.60;102958.50;5399427;26;19996;-70
2024/04/12 04:23:38;;;;;;;2.42;1.13;;;;;;;19.14;51.77;102968.00;5400175;26;20453;-70
2024/04/12 04:26:08;;;;;;;2.10;1.10;;;;;;;19.17;51.68;102981.91;5399598;26;19995;-68
2024/04/12 04:28:43;;;;;;;2.33;1.10;;;;;;;19.13;52.06;102967.13;5398243;26;20001;-70
2024/04/12 04:31:08;;;;;;;2.35;1.10;;;;;;;19.25;51.82;102988.56;5400111;26;20003;-70
2024/04/12 04:33:35;;;;;;;2.40;1.17;;;;;;;19.20;51.58;102980.88;5399650;26;19996;-70
2024/04/12 04:36:09;;;;;;;2.70;1.10;;;;;;;19.20;51.92;102987.03;5397170;26;20637;-72
2024/04/12 04:38:37;;;;;;;;;;;;;;;19.23;51.63;102993.09;5400401;26;20003;-69
2024/04/12 04:41:06;;;;;;;5.07;1.65;;;;;;;19.21;51.56;102990.53;5399310;26;19925;-71
2024/04/12 04:43:35;;;;;;;3.10;1.40;;;;;;;19.16;51.99;102980.19;5398520;26;20063;-69
2024/04/12 04:46:37;;;;;;;3.53;1.60;;;;;;;19.11;51.71;102974.28;5399472;26;20056;-71
2024/04/12 04:48:56;;;;;;;2.83;1.30;;;;;;;19.12;52.09;102981.28;5398724;26;19995;-69
2024/04/12 04:51:25;;;;;;;2.80;1.40;;;;;;;19.21;51.90;102994.00;5399611;26;20449;-70
2024/04/12 04:53:53;;;;;;;3.05;1.17;;;;;;;19.23;51.88;103001.84;5399431;26;20006;-69
2024/04/12 04:56:24;;;;;;;2.67;1.27;;;;;;;19.24;51.57;103000.09;5398935;26;19991;-70
2024/04/12 04:58:52;;;;;;;2.80;1.20;;;;;;;19.13;51.82;102985.63;5399332;26;19991;-72
2024/04/12 05:01:17;;;;;;;3.33;1.42;;;;;;;19.23;51.96;102998.38;5399603;26;20035;-70
2024/04/12 05:03:43;;;;;;;3.40;1.33;;;;;;;19.23;51.92;102996.56;5395965;26;20010;-69
2024/04/12 05:06:08;;;;;;;2.95;1.27;;;;;;;19.20;51.88;102996.72;5427553;26;20069;-69
2024/04/12 05:08:35;;;;;;;4.28;1.48;;;;;;;19.20;51.77;102988.78;5397890;26;20006;-69
2024/04/12 05:11:05;;;;;;;4.47;1.70;;;;;;;19.12;51.69;102975.13;5398349;26;20002;-70
2024/04/12 05:13:37;;;;;;;4.00;1.60;;;;;;;19.21;52.06;102991.34;5399389;26;20090;-69
2024/04/12 05:16:11;;;;;;;3.35;1.70;;;;;;;19.20;52.06;103000.25;5398967;26;20073;-69
2024/04/12 05:18:37;;;;;;;3.70;1.55;;;;;;;19.18;52.12;102991.56;5398869;26;19991;-69
2024/04/12 05:21:05;;;;;;;3.72;1.73;;;;;;;19.11;51.87;102979.56;5398934;26;19999;-69
2024/04/12 05:23:31;;;;;;;2.95;1.52;;;;;;;19.11;51.97;102981.38;5398514;26;20479;-69
2024/04/12 05:25:56;;;;;;;3.78;1.60;;;;;;;19.16;51.95;102987.25;5399131;26;20435;-69
2024/04/12 05:28:22;;;;;;;3.67;1.73;;;;;;;19.21;51.73;102999.28;5399241;26;20402;-70
2024/04/12 05:30:49;;;;;;;3.58;1.75;;;;;;;19.17;51.89;102992.47;5394116;26;20003;-69
2024/04/12 05:33:19;;;;;;;3.88;1.50;;;;;;;19.03;52.04;102965.91;5399064;26;20096;-69
2024/04/12 05:35:45;;;;;;;3.00;1.48;;;;;;;19.08;51.74;102977.09;5396865;26;19991;-70
2024/04/12 05:38:12;;;;;;;3.42;1.52;;;;;;;19.03;51.75;102977.31;5398192;26;19995;-70
2024/04/12 05:40:45;;;;;;;3.22;1.40;;;;;;;19.15;51.82;102989.06;5397720;26;20046;-69
2024/04/12 05:43:14;;;;;;;3.27;1.40;;;;;;;19.17;51.60;102996.91;5399004;26;19991;-72
2024/04/12 05:45:55;;;;;;;3.35;1.52;;;;;;;19.20;51.78;102994.09;5393753;26;20223;-69
2024/04/12 05:48:21;;;;;;;2.47;1.25;;;;;;;19.10;51.62;102980.50;5397966;26;20477;-70
2024/04/12 05:50:53;;;;;;;2.60;1.30;;;;;;;19.21;51.64;102999.28;5389994;26;20081;-70
2024/04/12 05:53:29;;;;;;;2.88;1.50;;;;;;;19.15;51.45;102983.78;5388132;26;20098;-70
2024/04/12 05:58:40;;;;;;;3.03;1.30;;;;;;;19.23;51.63;103001.00;5372026;26;20357;-70
2024/04/12 06:01:10;;;;;;;3.95;1.50;;;;;;;19.11;51.36;102965.50;5378987;26;20083;-70
2024/04/12 06:03:42;;;;;;;2.83;1.23;;;;;;;19.12;51.84;102969.84;5379263;26;20330;-69
2024/04/12 06:06:08;;;;;;;3.28;1.80;;;;;;;19.05;51.60;102956.09;5391345;26;20007;-69
2024/04/12 06:08:35;;;;;;;3.05;1.50;;;;;;;19.22;51.33;102971.09;5398436;26;20340;-72
2024/04/12 06:11:00;;;;;;;2.17;1.10;;;;;;;19.23;51.75;102978.06;5398171;26;19995;-69
2024/04/12 06:13:26;;;;;;;3.38;1.50;;;;;;;19.21;51.95;102975.50;5396397;26;20010;-67
2024/04/12 06:15:54;;;;;;;3.38;1.60;;;;;;;19.21;52.13;102975.50;5397645;26;19994;-70
2024/04/12 06:18:19;;;;;;;2.92;1.27;;;;;;;19.27;51.75;102978.78;5397947;26;20038;-70
2024/04/12 06:20:44;;;;;;;3.22;1.42;;;;;;;19.19;51.94;102960.69;5397164;26;20014;-68
2024/04/12 06:23:11;;;;;;;3.53;1.55;;;;;;;19.27;52.43;102986.72;5398522;26;19998;-72
2024/04/12 06:25:38;;;;;;;3.00;1.50;;;;;;;19.26;52.25;102982.34;5398496;26;20412;-70
2024/04/12 06:28:11;;;;;;;3.28;1.70;;;;;;;19.32;52.40;102989.97;5396567;26;20207;-69
2024/04/12 06:30:40;;;;;;;3.50;1.45;;;;;;;19.29;52.28;102984.84;5397930;26;20003;-68
2024/04/12 06:33:06;;;;;;;4.45;1.70;;;;;;;19.30;52.24;102984.75;5397934;26;20081;-69
2024/04/12 06:35:31;;;;;;;4.32;1.80;;;;;;;19.12;52.49;102961.91;5396860;26;19991;-71
2024/04/12 06:37:58;;;;;;;3.08;1.52;;;;;;;19.25;52.54;102989.44;5397871;26;20336;-68
2024/04/12 06:40:28;;;;;;;5.78;1.85;;;;;;;18.94;52.26;102932.03;5398184;26;20512;-68
2024/04/12 06:43:05;;;;;;;3.63;1.70;;;;;;;19.18;52.62;102970.41;5397003;26;20416;-68
2024/04/12 06:45:32;;;;;;;4.68;1.58;;;;;;;19.24;52.78;102978.94;5456147;26;19991;-68
2024/04/12 06:47:57;;;;;;;4.18;2.00;;;;;;;19.35;52.52;102989.81;5395335;26;20493;-68
2024/04/12 06:50:24;;;;;;;6.20;1.70;;;;;;;19.39;52.41;102996.63;5397996;26;19999;-68
2024/04/12 06:52:54;;;;;;;4.20;1.70;;;;;;;19.37;52.56;102995.84;5400714;26;19996;-69
2024/04/12 06:55:30;;;;;;;7.22;2.05;;;;;;;19.31;52.73;102982.94;5400691;26;20593;-70
2024/04/12 06:57:55;;;;;;;3.95;1.70;;;;;;;19.35;52.88;102981.88;5400128;26;19992;-70
2024/04/12 07:00:26;;;;;;;3.70;2.00;;;;;;;19.41;52.92;103002.69;5400768;26;20221;-70
2024/04/12 07:02:54;;;;;;;;;;;;;;;19.42;52.99;102995.63;5399000;26;19995;-69
2024/04/12 07:05:21;;;;;;;3.90;1.77;;;;;;;19.30;52.77;102978.63;5401373;26;19931;-71
2024/04/12 07:07:46;;;;;;;4.20;1.67;;;;;;;19.31;52.89;102977.66;5400848;26;19995;-67
2024/04/12 07:10:12;;;;;;;5.75;1.73;;;;;;;19.39;52.86;102994.84;5400041;26;20768;-68
2024/04/12 07:12:38;;;;;;;4.85;2.00;;;;;;;19.39;52.99;102996.63;5400601;26;20039;-68
2024/04/12 07:15:09;;;;;;;3.70;1.77;;;;;;;19.31;52.98;102989.13;5401095;26;20440;-68
2024/04/12 07:17:39;;;;;;;4.63;1.85;;;;;;;19.40;52.91;103003.63;5399962;26;20018;-69
2024/04/12 07:20:13;;;;;;;2.85;1.52;;;;;;;19.44;52.92;103010.47;5400548;26;20010;-70
2024/04/12 07:22:39;;;;;;;4.20;1.90;;;;;;;19.44;52.95;103013.13;5401199;26;20010;-69
2024/04/12 07:25:07;;;;;;;4.88;1.80;;;;;;;19.44;52.87;103017.53;5399958;26;20000;-69
2024/04/12 07:27:33;;;;;;;3.70;1.60;;;;;;;19.43;53.27;103010.56;5400546;26;19995;-69
2024/04/12 07:29:58;;;;;;;5.60;1.83;;;;;;;19.46;53.13;103019.16;5399850;26;19991;-70
2024/04/12 07:32:24;;;;;;;3.70;2.05;;;;;;;19.39;53.33;103004.56;5400316;26;20065;-69
2024/04/12 07:34:50;;;;;;;4.03;1.83;;;;;;;19.34;53.41;102996.00;5400566;26;20000;-70
2024/04/12 07:37:31;;;;;;;4.43;1.70;;;;;;;19.36;53.58;103002.94;5399743;26;19999;-67
2024/04/12 07:42:45;;;;;;;4.53;1.90;;;;;;;19.40;53.92;103009.75;5397232;26;20645;-71
2024/04/12 07:45:17;;;;;;;7.32;2.20;;;;;;;19.45;53.95;103012.16;5397228;26;19996;-76
2024/04/12 07:47:53;;;;;;;5.97;2.40;;;;;;;19.53;54.12;103028.47;5397603;26;20069;-72
2024/04/12 07:50:29;;;;;;;7.15;2.53;;;;;;;19.48;53.78;103017.28;5401221;26;20029;-72
2024/04/12 07:52:55;;;;;;;5.25;2.10;;;;;;;19.52;53.86;103018.84;5401012;26;20007;-72
2024/04/12 07:55:23;;;;;;;5.43;1.80;;;;;;;19.31;53.95;102981.19;5402063;26;19995;-69
2024/04/12 07:57:52;;;;;;;4.85;2.00;;;;;;;19.49;53.57;103003.16;5399335;26;20004;-73
2024/04/12 08:03:14;;;;;;;5.15;1.90;;;;;;;19.45;53.39;103001.59;5377994;26;19999;-71
2024/04/12 08:06:03;;;;;;;5.53;2.47;;;;;;;19.43;53.54;102987.59;5400458;26;20003;-70
2024/04/12 08:08:31;;;;;;;4.00;1.90;;;;;;;19.43;53.22;102995.53;5401341;26;20006;-69
2024/04/12 08:10:57;;;;;;;3.88;2.03;;;;;;;19.55;53.00;103001.94;5400544;26;19998;-71
2024/04/12 08:13:28;;;;;;;4.18;1.92;;;;;;;19.50;53.31;102996.06;5400582;26;19987;-71
2024/04/12 08:15:59;;;;;;;5.05;2.10;;;;;;;19.43;53.23;102971.72;5401274;26;19995;-73
2024/04/12 08:18:28;;;;;;;5.03;2.05;;;;;;;19.50;53.48;102991.63;5401259;26;20398;-70
2024/04/12 08:21:02;;;;;;;4.47;1.80;;;;;;;19.37;53.24;102983.47;5399782;26;19995;-73
2024/04/12 08:23:31;;;;;;;3.90;2.00;;;;;;;19.45;53.21;102992.81;5400545;26;20322;-69
2024/04/12 08:26:09;;;;;;;5.22;2.40;;;;;;;19.54;53.21;103002.91;5400590;26;20030;-71
2024/04/12 08:28:35;;;;;;;7.97;2.38;;;;;;;19.39;53.36;102984.28;5399733;26;20007;-71
2024/04/12 08:31:05;;;;;;;5.05;2.10;;;;;;;19.45;53.25;102993.66;5400541;26;20758;-71
2024/04/12 08:33:32;;;;;;;4.00;1.90;;;;;;;19.53;53.08;103009.13;5401330;26;20034;-69
2024/04/12 08:35:57;;;;;;;4.05;1.85;;;;;;;19.56;53.25;103017.72;5401155;26;19996;-70
2024/04/12 08:38:23;;;;;;;5.13;1.95;;;;;;;19.45;53.17;103001.59;5401178;26;20006;-73
2024/04/12 08:40:52;;;;;;;5.28;2.00;;;;;;;19.44;53.14;103001.66;5400191;26;20050;-70
2024/04/12 08:43:19;;;;;;;5.28;2.13;;;;;;;19.13;53.50;102953.06;5429016;26;20408;-70
2024/04/12 08:45:48;;;;;;;4.78;2.20;;;;;;;19.46;53.26;103003.31;5400638;26;20471;-71
2024/04/12 08:48:16;;;;;;;4.13;2.00;;;;;;;19.50;53.07;103009.28;5399855;26;19999;-74
2024/04/12 08:50:48;;;;;;;7.70;2.30;;;;;;;19.51;53.02;103021.56;5400747;26;20441;-73
2024/04/12 08:53:20;;;;;;;5.05;2.10;;;;;;;19.55;53.13;103023.97;5400741;26;20026;-71
2024/04/12 08:55:46;;;;;;;4.78;2.28;;;;;;;19.56;53.28;103020.38;5398915;26;20027;-70
2024/04/12 08:58:19;;;;;;;4.07;1.90;;;;;;;19.50;53.08;103012.81;5398959;26;20331;-70
2024/04/12 09:00:46;;;;;;;5.13;2.13;;;;;;;19.44;53.25;102999.03;5398963;26;20073;-71
2024/04/12 09:03:23;;;;;;;4.38;2.00;;;;;;;19.53;53.27;103017.91;5397624;26;20000;-72
2024/04/12 09:05:52;;;;;;;5.45;1.90;;;;;;;19.49;53.32;103002.31;5399323;26;19995;-69
2024/04/12 09:08:18;;;;;;;6.13;2.03;;;;;;;19.38;53.38;102989.66;5400024;26;20068;-70
2024/04/12 09:10:44;;;;;;;4.90;1.90;;;;;;;19.56;53.82;103014.25;5392391;26;20000;-70
2024/04/12 09:13:14;;;;;;;5.15;2.38;;;;;;;19.37;53.87;102977.34;5398099;26;20028;-71
2024/04/12 09:15:43;;;;;;;4.95;2.20;;;;;;;19.50;53.85;103002.22;5397937;26;20006;-75
2024/04/12 09:18:18;;;;;;;4.20;2.20;;;;;;;19.57;54.08;103008.88;5398050;26;20011;-75
2024/04/12 09:20:44;;;;;;;4.07;2.00;;;;;;;19.61;53.78;103017.50;5396488;26;20003;-74
2024/04/12 09:23:19;;;;;;;6.80;2.42;;;;;;;19.56;54.03;103012.44;5397919;26;20377;-70
2024/04/12 09:25:56;;;;;;;4.32;2.10;;;;;;;19.61;54.06;103014.00;5392893;26;20003;-72
2024/04/12 09:28:26;;;;;;;4.43;2.00;;;;;;;19.49;53.86;102991.72;5396049;26;20359;-71
2024/04/12 09:33:39;;;;;;;4.93;2.20;;;;;;;19.67;53.40;103008.38;5397823;26;20033;-70
2024/04/12 09:36:06;;;;;;;3.22;1.83;;;;;;;19.67;53.41;103009.22;5397055;26;20548;-71
2024/04/12 09:38:32;;;;;;;4.80;2.00;;;;;;;19.68;53.68;103020.69;5397630;26;20019;-70
2024/04/12 09:41:13;;;;;;;4.55;1.90;;;;;;;19.61;53.85;103006.91;5396969;26;20031;-71
2024/04/12 09:43:47;;;;;;;5.10;2.05;;;;;;;19.58;53.57;102989.44;5396100;26;20024;-72
2024/04/12 09:46:22;;;;;;;4.80;1.90;;;;;;;19.64;53.35;102988.22;5397793;26;20064;-71
2024/04/12 10:38:44;;;;;;;4.00;1.70;;;;;;;19.70;53.59;102971.19;5401141;26;19997;-72
2024/04/12 10:41:10;;;;;;;5.30;2.03;;;;;;;19.82;53.38;102982.91;5400597;26;19992;-73
2024/04/12 10:43:36;;;;;;;3.47;1.55;;;;;;;19.82;53.37;102978.50;5400472;26;19996;-74
2024/04/12 10:46:04;;;;;;;7.20;2.10;;;;;;;19.69;53.60;102967.69;5399271;26;19996;-70
2024/04/12 10:48:30;;;;;;;3.47;1.70;;;;;;;19.80;53.43;102988.28;5400340;26;20207;-70
2024/04/12 10:50:57;;;;;;;4.88;1.90;;;;;;;19.81;53.53;102981.22;5401349;26;19995;-70
2024/04/12 10:53:23;;;;;;;3.72;2.08;;;;;;;19.75;53.50;102969.13;5401013;26;20460;-71
2024/04/12 10:55:48;;;;;;;5.22;1.95;;;;;;;19.72;53.57;102962.22;5400048;26;20057;-69
2024/04/12 10:58:18;;;;;;;6.25;1.70;;;;;;;19.78;53.36;102970.81;5400990;26;20007;-71
2024/04/12 11:00:48;;;;;;;3.85;1.85;;;;;;;19.72;53.85;102951.63;5394087;26;20011;-71
2024/04/12 11:03:23;;;;;;;4.13;1.90;;;;;;;19.85;53.70;102974.81;5395197;26;20403;-72
2024/04/12 11:05:50;;;;;;;5.50;2.20;;;;;;;19.75;54.16;102963.84;5397591;26;19996;-68
2024/04/12 11:08:15;;;;;;;4.72;1.92;;;;;;;19.77;54.25;102961.16;5397470;26;20007;-71
2024/04/12 11:11:15;;;;;;;5.70;2.05;;;;;;;19.73;54.08;102957.78;5400088;26;19996;-69
2024/04/12 11:13:45;;;;;;;5.43;1.98;;;;;;;19.85;53.89;102988.03;5398995;26;20031;-68
2024/04/12 11:32:37;;;;;;;3.65;1.70;;;;;;;19.74;53.86;102941.84;5399171;26;20849;-72
2024/04/12 11:35:05;;;;;;;4.38;1.80;;;;;;;19.85;53.99;102961.56;5395423;26;20847;-76
2024/04/12 11:37:30;;;;;;;6.05;2.00;;;;;;;19.66;53.74;102920.25;5395770;26;20667;-72
2024/04/12 11:39:56;;;;;;;4.10;1.90;;;;;;;19.68;53.79;102912.22;5397418;26;20002;-73
2024/04/12 11:42:23;;;;;;;5.30;1.88;;;;;;;19.87;53.85;102959.72;5397698;26;19992;-74
2024/04/12 11:44:53;;;;;;;5.38;1.90;;;;;;;19.79;53.87;102933.69;5398668;26;19999;-75
2024/04/12 11:47:19;;;;;;;4.75;1.80;;;;;;;19.87;53.71;102952.63;5397011;26;20007;-73
2024/04/12 11:49:49;;;;;;;4.90;2.00;;;;;;;19.79;54.05;102925.75;5399038;26;19995;-71
2024/04/12 11:52:15;;;;;;;4.47;1.70;;;;;;;19.89;53.81;102947.25;5398877;26;19995;-73
2024/04/12 11:54:52;;;;;;;6.70;2.00;;;;;;;19.86;53.81;102939.47;5399362;26;20059;-71
2024/04/12 11:57:22;;;;;;;4.72;1.80;;;;;;;19.80;53.86;102935.38;5398413;26;20003;-72
2024/04/12 11:59:47;;;;;;;4.65;2.15;;;;;;;19.87;53.55;102935.91;5398441;26;19996;-71
2024/04/12 12:02:15;;;;;;;5.80;2.00;;;;;;;19.84;53.95;102931.63;5394506;26;19999;-71
2024/04/12 12:04:45;;;;;;;4.22;2.00;;;;;;;19.88;54.21;102919.06;5397886;26;20539;-70
2024/04/12 12:07:11;;;;;;;4.60;1.90;;;;;;;19.78;54.29;102923.19;5399365;26;20023;-72
2024/04/12 12:09:37;;;;;;;5.40;2.03;;;;;;;19.85;54.08;102925.41;5398701;26;19991;-70
2024/04/12 12:12:10;;;;;;;5.30;2.10;;;;;;;19.97;54.19;102938.88;5397642;26;20003;-72
2024/04/12 12:14:41;;;;;;;3.85;1.67;;;;;;;19.88;54.20;102924.38;5398832;26;20154;-71
2024/04/12 12:17:06;;;;;;;5.05;1.80;;;;;;;19.92;54.24;102928.56;5398750;26;20006;-72
2024/04/12 12:19:33;;;;;;;5.57;2.28;;;;;;;20.00;53.99;102941.38;5398434;26;20422;-75
2024/04/12 12:22:01;;;;;;;6.30;2.20;;;;;;;19.79;54.23;102901.06;5398931;26;20061;-73
2024/04/12 12:24:27;;;;;;;5.80;2.20;;;;;;;19.90;54.48;102920.69;5398667;26;20031;-72
2024/04/12 12:26:52;;;;;;;5.60;2.17;;;;;;;19.91;54.51;102919.75;5390624;26;19999;-73
2024/04/12 12:29:18;;;;;;;5.47;2.45;;;;;;;19.83;54.37;102892.88;5397085;26;20325;-71
2024/04/12 12:31:45;;;;;;;3.50;1.80;;;;;;;19.93;54.08;102909.94;5395492;26;20035;-73
2024/04/12 12:34:11;;;;;;;5.60;2.08;;;;;;;19.89;54.22;102903.09;5394573;26;20000;-74
2024/04/12 12:36:36;;;;;;;4.18;2.05;;;;;;;19.79;53.90;102888.72;5394964;26;20086;-73
2024/04/12 12:39:02;;;;;;;3.72;1.80;;;;;;;19.97;54.17;102912.41;5397829;26;19993;-72
2024/04/12 12:41:30;;;;;;;4.78;1.90;;;;;;;19.91;54.25;102900.38;5397528;26;20019;-72
2024/04/12 12:43:56;;;;;;;4.50;2.03;;;;;;;20.05;54.01;102918.13;5396687;26;21221;-73
2024/04/12 12:46:21;;;;;;;7.45;2.60;;;;;;;19.95;54.13;102901.91;5398644;26;19995;-72
2024/04/12 12:48:48;;;;;;;5.25;2.13;;;;;;;19.93;53.78;102890.56;5396614;26;19995;-73
2024/04/12 12:51:15;;;;;;;5.53;2.08;;;;;;;20.04;53.90;102913.75;5398807;26;20003;-72
2024/04/12 12:53:44;;;;;;;4.07;2.10;;;;;;;20.08;53.78;102921.44;5397522;26;19996;-73
2024/04/12 12:56:09;;;;;;;6.35;2.20;;;;;;;19.93;53.90;102894.06;5397989;26;20037;-72